ADDS METAR Data INFO
IDs: Format: Raw Decoded Include TAF

Data at: 1510 UTC 29 May 2017

METAR for:KPEZ (Pleasanton Muni, TX, US)
Text:KPEZ 291455Z AUTO 07008KT 10SM SCT009 BKN015 OVC047 22/21 A3005 RMK AO2 LTG DSNT NE P0008 60008 T02170208
Temperature: 21.7°C ( 71°F)
Dewpoint: 20.8°C ( 69°F) [RH = 95%]
Pressure (altimeter):30.05 inches Hg (1017.7 mb)
Winds:from the ENE (70 degrees) at 9 MPH (8 knots; 4.1 m/s)
Visibility:10 or more sm (16+ km)
Ceiling:1500 feet AGL
Clouds: scattered clouds at 900 feet AGL, broken clouds at 1500 feet AGL, overcast cloud deck at 4700 feet AGL
QC Flag:automated observation with no human augmentation


Page loaded:  15:10 UTC  |   08:10 AM Pacific  |   09:10 AM Mountain  |   10:10 AM Central  |   11:10 AM Eastern

 

ADVISORIES

FORECASTS

FORECASTS

OBSERVATIONS

USER TOOLS

ABOUT US